createdAt,value
2023-01-19T00:00:56.582Z,99596.94
2023-01-19T00:03:23.438Z,99600.09
2023-01-19T00:05:50.854Z,99593.41
2023-01-19T00:08:17.828Z,99594.88
2023-01-19T00:10:48.782Z,99595.09
2023-01-19T00:13:16.310Z,99599.63
2023-01-19T00:15:43.825Z,99588.75
2023-01-19T00:18:11.376Z,99592.81
2023-01-19T00:20:39.406Z,99599.50
2023-01-19T00:23:08.085Z,99601.41
2023-01-19T00:25:35.917Z,99598.81
2023-01-19T00:28:03.059Z,99598.50
2023-01-19T00:30:30.082Z,99597.59
2023-01-19T00:32:57.188Z,99598.25
2023-01-19T00:35:24.249Z,99609.69
2023-01-19T00:37:51.545Z,99606.97
2023-01-19T00:40:18.800Z,99619.66
2023-01-19T00:42:48.741Z,99605.75
2023-01-19T00:45:19.032Z,99622.19
2023-01-19T00:47:48.202Z,99614.16
2023-01-19T00:50:17.159Z,99616.97
2023-01-19T00:52:45.095Z,99617.44
2023-01-19T00:55:14.832Z,99621.66
2023-01-19T00:57:42.952Z,99618.72
2023-01-19T01:00:15.345Z,99606.69
2023-01-19T01:02:44.266Z,99611.00
2023-01-19T01:05:12.426Z,99613.50
2023-01-19T01:07:44.760Z,99615.75
2023-01-19T01:10:17.477Z,99624.13
2023-01-19T01:12:53.626Z,99623.22
2023-01-19T01:15:26.500Z,99624.13
2023-01-19T01:17:54.044Z,99623.72
2023-01-19T01:20:23.723Z,99623.94
2023-01-19T01:22:53.517Z,99625.28
2023-01-19T01:25:22.761Z,99623.13
2023-01-19T01:27:50.564Z,99623.38
2023-01-19T01:30:17.824Z,99628.59
2023-01-19T01:32:44.979Z,99635.88
2023-01-19T01:35:12.847Z,99632.34
2023-01-19T01:37:40.674Z,99633.47
2023-01-19T01:40:08.384Z,99645.97
2023-01-19T01:42:35.354Z,99640.03
2023-01-19T01:45:07.757Z,99640.72
2023-01-19T01:47:47.067Z,99643.94
2023-01-19T01:50:35.481Z,99641.31
2023-01-19T01:53:08.365Z,99655.03
2023-01-19T01:55:45.734Z,99648.47
2023-01-19T01:58:13.808Z,99650.72
2023-01-19T02:00:59.887Z,99654.47
2023-01-19T02:03:28.057Z,99652.97
2023-01-19T02:05:59.641Z,99647.66
2023-01-19T02:08:57.980Z,99656.03
2023-01-19T02:11:44.269Z,99654.69
2023-01-19T02:14:11.263Z,99653.06
2023-01-19T02:16:38.843Z,99649.91
2023-01-19T02:19:08.844Z,99657.41
2023-01-19T02:21:58.115Z,99649.69
2023-01-19T02:24:25.846Z,99657.53
2023-01-19T02:26:52.811Z,99659.13
2023-01-19T02:29:23.150Z,99663.09
2023-01-19T02:31:51.023Z,99663.41
2023-01-19T02:34:20.449Z,99660.25
2023-01-19T02:36:47.541Z,99660.56
2023-01-19T02:39:20.147Z,99669.53
2023-01-19T02:41:52.758Z,99662.97
2023-01-19T02:44:21.353Z,99670.09
2023-01-19T02:46:48.955Z,99674.09
2023-01-19T02:49:15.916Z,99669.44
2023-01-19T02:51:44.602Z,99668.31
2023-01-19T02:54:33.213Z,99675.94
2023-01-19T02:57:06.914Z,99679.44
2023-01-19T02:59:43.705Z,99681.72
2023-01-19T03:02:33.439Z,99668.31
2023-01-19T03:05:26.721Z,99674.78
2023-01-19T03:08:20.630Z,99671.50
2023-01-19T03:11:03.962Z,99672.84
2023-01-19T03:13:39.340Z,99679.66
2023-01-19T03:16:22.507Z,99686.34
2023-01-19T03:18:56.956Z,99683.75
2023-01-19T03:21:27.613Z,99673.75
2023-01-19T03:23:59.774Z,99676.03
2023-01-19T03:26:30.827Z,99681.81
2023-01-19T03:29:02.570Z,99684.53
2023-01-19T03:31:33.137Z,99686.16
2023-01-19T03:34:06.820Z,99688.06
2023-01-19T03:36:42.798Z,99688.75
2023-01-19T03:39:12.468Z,99706.03
2023-01-19T03:41:40.449Z,99700.56
2023-01-19T03:44:07.855Z,99706.78
2023-01-19T03:46:35.128Z,99710.31
2023-01-19T03:49:02.152Z,99711.81
2023-01-19T03:51:29.754Z,99717.13
2023-01-19T03:53:56.962Z,99717.03
2023-01-19T03:56:25.601Z,99727.03
2023-01-19T03:58:52.731Z,99726.34
2023-01-19T04:01:23.175Z,99742.72
2023-01-19T04:03:51.597Z,99741.09
2023-01-19T04:06:20.633Z,99743.50
2023-01-19T04:08:49.537Z,99760.19
2023-01-19T04:11:17.425Z,99759.84
2023-01-19T04:13:44.854Z,99768.47
2023-01-19T04:16:12.904Z,99769.72
2023-01-19T04:18:41.336Z,99778.25
2023-01-19T04:21:08.515Z,99778.59
2023-01-19T04:23:35.555Z,99788.69
2023-01-19T04:26:07.229Z,99796.75
2023-01-19T04:28:37.170Z,99799.38
2023-01-19T04:31:05.572Z,99811.84
2023-01-19T04:33:33.101Z,99809.13
2023-01-19T04:36:00.506Z,99805.38
2023-01-19T04:38:27.720Z,99812.66
2023-01-19T04:40:54.989Z,99813.09
2023-01-19T04:43:23.511Z,99812.53
2023-01-19T04:45:51.269Z,99823.19
2023-01-19T04:48:19.196Z,99829.63
2023-01-19T04:50:46.751Z,99831.44
2023-01-19T04:53:14.612Z,99830.53
2023-01-19T04:55:41.441Z,99840.28
2023-01-19T04:58:08.576Z,99839.38
2023-01-19T05:00:36.761Z,99833.59
2023-01-19T05:03:04.937Z,99839.97
2023-01-19T05:05:33.312Z,99840.09
2023-01-19T05:08:00.630Z,99845.53
2023-01-19T05:10:27.938Z,99854.84
2023-01-19T05:12:55.782Z,99850.84
2023-01-19T05:15:22.896Z,99858.59
2023-01-19T05:17:50.549Z,99862.75
2023-01-19T05:20:17.770Z,99857.06
2023-01-19T05:22:53.889Z,99856.13
2023-01-19T05:25:22.341Z,99866.81
2023-01-19T05:27:49.443Z,99867.47
2023-01-19T05:30:16.727Z,99881.00
2023-01-19T05:32:43.884Z,99889.75
2023-01-19T05:35:10.722Z,99882.38
2023-01-19T05:37:37.689Z,99886.38
2023-01-19T05:40:05.488Z,99890.75
2023-01-19T05:42:33.005Z,99893.22
2023-01-19T05:45:00.366Z,99892.63
2023-01-19T05:47:29.793Z,99891.25
2023-01-19T05:49:56.992Z,99896.19
2023-01-19T05:52:25.091Z,99917.81
2023-01-19T05:54:54.706Z,99922.03
2023-01-19T05:57:22.438Z,99911.94
2023-01-19T05:59:50.201Z,99909.34
2023-01-19T06:02:17.512Z,99915.19
2023-01-19T06:04:44.889Z,99916.38
2023-01-19T06:07:12.003Z,99917.13
2023-01-19T06:09:38.989Z,99918.56
2023-01-19T06:12:06.378Z,99945.38
2023-01-19T06:14:33.473Z,99963.97
2023-01-19T06:17:00.725Z,99947.75
2023-01-19T06:19:27.759Z,99951.06
2023-01-19T06:21:54.775Z,99947.75
2023-01-19T06:24:22.064Z,99945.50
2023-01-19T06:26:49.154Z,99953.00
2023-01-19T06:29:16.555Z,99958.22
2023-01-19T06:31:43.558Z,99962.47
2023-01-19T06:34:10.929Z,99959.53
2023-01-19T06:36:38.694Z,99964.81
2023-01-19T06:39:06.374Z,99980.56
2023-01-19T06:41:34.382Z,99991.50
2023-01-19T06:44:02.861Z,99991.94
2023-01-19T06:46:30.006Z,99989.22
2023-01-19T06:48:56.902Z,99992.63
2023-01-19T06:51:24.636Z,99999.69
2023-01-19T06:53:51.757Z,100004.34
2023-01-19T06:56:19.071Z,100011.72
2023-01-19T06:58:50.817Z,100014.78
2023-01-19T07:01:18.351Z,100020.56
2023-01-19T07:03:46.957Z,100025.06
2023-01-19T07:06:14.180Z,100030.53
2023-01-19T07:08:41.087Z,100034.41
2023-01-19T07:11:25.977Z,100042.09
2023-01-19T07:13:58.391Z,100042.44
2023-01-19T07:16:25.555Z,100035.88
2023-01-19T07:18:52.679Z,100046.88
2023-01-19T07:21:20.874Z,100054.41
2023-01-19T07:23:52.192Z,100056.28
2023-01-19T07:26:21.710Z,100066.97
2023-01-19T07:28:49.620Z,100070.81
2023-01-19T07:31:16.739Z,100074.03
2023-01-19T07:33:44.151Z,100074.34
2023-01-19T07:36:11.622Z,100078.84
2023-01-19T07:38:38.493Z,100077.16
2023-01-19T07:41:08.007Z,100092.91
2023-01-19T07:43:35.295Z,100092.50
2023-01-19T07:46:05.696Z,100096.09
2023-01-19T07:48:33.346Z,100098.88
2023-01-19T07:51:05.883Z,100106.44
2023-01-19T07:53:33.199Z,100113.88
2023-01-19T07:56:00.229Z,100120.94
2023-01-19T07:58:27.732Z,100118.09
2023-01-19T08:00:54.943Z,100127.09
2023-01-19T08:03:22.142Z,100130.47
2023-01-19T08:05:53.284Z,100124.75
2023-01-19T08:08:21.145Z,100134.38
2023-01-19T08:10:51.833Z,100124.63
2023-01-19T08:13:19.050Z,100136.31
2023-01-19T08:15:53.220Z,100141.09
2023-01-19T08:18:20.644Z,100144.44
2023-01-19T08:20:47.670Z,100147.63
2023-01-19T08:23:15.098Z,100148.25
2023-01-19T08:25:45.103Z,100161.97
2023-01-19T08:28:14.830Z,100159.03
2023-01-19T08:30:44.486Z,100167.84
2023-01-19T08:33:12.874Z,100173.63
2023-01-19T08:35:42.957Z,100172.16
2023-01-19T08:38:10.812Z,100177.00
2023-01-19T08:40:40.350Z,100179.13
2023-01-19T08:43:10.200Z,100175.78
2023-01-19T08:45:41.572Z,100181.88
2023-01-19T08:48:08.609Z,100181.56
2023-01-19T08:50:35.674Z,100191.53
2023-01-19T08:53:06.460Z,100192.19
2023-01-19T08:55:37.920Z,100192.03
2023-01-19T08:58:06.083Z,100194.44
2023-01-19T09:00:34.698Z,100195.03
2023-01-19T09:03:04.583Z,100202.69
2023-01-19T09:05:37.565Z,100218.19
2023-01-19T09:08:11.871Z,100219.09
2023-01-19T09:10:44.174Z,100211.03
2023-01-19T09:13:12.011Z,100208.69
2023-01-19T09:15:39.995Z,100210.66
2023-01-19T09:18:13.935Z,100214.34
2023-01-19T09:20:42.842Z,100224.59
2023-01-19T09:23:15.459Z,100220.91
2023-01-19T09:25:44.740Z,100235.59
2023-01-19T09:28:14.733Z,100228.53
2023-01-19T09:30:43.195Z,100229.28
2023-01-19T09:33:12.498Z,100235.19
2023-01-19T09:35:40.511Z,100239.34
2023-01-19T09:38:09.389Z,100238.44
2023-01-19T09:40:47.363Z,100240.72
2023-01-19T09:43:46.698Z,100245.44
2023-01-19T09:46:25.440Z,100256.84
2023-01-19T09:48:53.659Z,100252.88
2023-01-19T09:51:48.453Z,100251.22
2023-01-19T09:54:19.010Z,100262.13
2023-01-19T09:56:51.328Z,100268.53
2023-01-19T09:59:33.812Z,100270.31
2023-01-19T10:02:06.779Z,100274.22
2023-01-19T10:04:40.429Z,100272.72
2023-01-19T10:07:29.138Z,100260.41
2023-01-19T10:10:08.455Z,100269.25
2023-01-19T10:12:57.682Z,100273.16
2023-01-19T10:15:55.441Z,100283.50
2023-01-19T10:18:35.940Z,100280.97
2023-01-19T10:21:28.428Z,100286.41
2023-01-19T10:24:00.930Z,100291.75
2023-01-19T10:26:34.428Z,100283.75
2023-01-19T10:29:10.903Z,100285.00
2023-01-19T10:31:42.313Z,100294.78
2023-01-19T10:34:21.519Z,100289.69
2023-01-19T10:36:58.003Z,100299.03
2023-01-19T10:39:25.030Z,100298.47
2023-01-19T10:41:53.625Z,100301.84
2023-01-19T10:44:26.208Z,100303.41
2023-01-19T10:46:55.675Z,100294.56
2023-01-19T10:49:39.135Z,100297.38
2023-01-19T10:52:08.218Z,100296.91
2023-01-19T10:54:37.488Z,100294.16
2023-01-19T10:57:08.945Z,100298.06
2023-01-19T10:59:51.220Z,100299.78
2023-01-19T11:02:21.336Z,100305.72
2023-01-19T11:04:51.468Z,100305.06
2023-01-19T11:07:32.514Z,100308.22
2023-01-19T11:10:20.993Z,100316.06
2023-01-19T11:13:03.406Z,100314.06
2023-01-19T11:15:54.435Z,100312.41
2023-01-19T11:18:27.341Z,100311.72
2023-01-19T11:20:56.892Z,100320.06
2023-01-19T11:23:34.165Z,100315.97
2023-01-19T11:26:05.260Z,100312.56
2023-01-19T11:28:36.632Z,100316.88
2023-01-19T11:31:15.838Z,100316.75
2023-01-19T11:33:45.846Z,100326.78
2023-01-19T11:36:28.512Z,100314.31
2023-01-19T11:38:59.075Z,100313.75
2023-01-19T11:41:33.392Z,100311.25
2023-01-19T11:44:16.319Z,100318.03
2023-01-19T11:46:50.165Z,100321.22
2023-01-19T11:49:50.302Z,100327.69
2023-01-19T11:52:27.375Z,100314.31
2023-01-19T11:55:03.491Z,100340.47
2023-01-19T11:57:30.816Z,100342.94
2023-01-19T12:00:03.501Z,100342.00
2023-01-19T12:02:45.244Z,100343.16
2023-01-19T12:05:16.072Z,100335.50
2023-01-19T12:07:46.055Z,100337.63
2023-01-19T12:10:30.235Z,100339.78
2023-01-19T12:12:58.093Z,100345.56
2023-01-19T12:15:44.720Z,100348.50
2023-01-19T12:18:24.822Z,100349.81
2023-01-19T12:20:54.678Z,100349.22
2023-01-19T12:23:46.664Z,100341.34
2023-01-19T12:26:16.712Z,100353.75
2023-01-19T12:28:47.589Z,100347.69
2023-01-19T12:31:17.795Z,100349.47
2023-01-19T12:33:45.477Z,100352.06
2023-01-19T12:36:31.033Z,100345.69
2023-01-19T12:39:21.048Z,100356.59
2023-01-19T12:41:49.690Z,100351.78
2023-01-19T12:44:28.520Z,100351.00
2023-01-19T12:47:24.624Z,100344.41
2023-01-19T12:50:00.503Z,100357.78
2023-01-19T12:52:36.680Z,100342.22
2023-01-19T12:55:20.192Z,100356.53
2023-01-19T12:58:01.368Z,100360.25
2023-01-19T13:00:47.132Z,100355.59
2023-01-19T13:03:17.561Z,100355.47
2023-01-19T13:05:44.552Z,100357.25
2023-01-19T13:08:14.284Z,100363.53
2023-01-19T13:11:00.494Z,100358.28
2023-01-19T13:13:30.102Z,100364.50
2023-01-19T13:16:20.541Z,100362.91
2023-01-19T13:19:05.856Z,100365.22
2023-01-19T13:21:39.950Z,100359.56
2023-01-19T13:24:11.568Z,100373.53
2023-01-19T13:27:00.419Z,100371.94
2023-01-19T13:29:34.574Z,100370.38
2023-01-19T13:32:21.760Z,100388.16
2023-01-19T13:34:53.690Z,100393.81
2023-01-19T13:37:23.863Z,100380.25
2023-01-19T13:39:53.902Z,100387.78
2023-01-19T13:42:41.958Z,100388.91
2023-01-19T13:45:33.543Z,100383.69
2023-01-19T13:48:04.922Z,100394.34
2023-01-19T13:50:34.254Z,100387.78
2023-01-19T13:53:02.818Z,100389.72
2023-01-19T13:55:31.671Z,100394.88
2023-01-19T13:57:59.413Z,100401.75
2023-01-19T14:00:29.625Z,100403.69
2023-01-19T14:03:02.309Z,100399.69
2023-01-19T14:05:34.672Z,100395.69
2023-01-19T14:08:06.127Z,100397.25
2023-01-19T14:10:35.299Z,100403.69
2023-01-19T14:13:05.140Z,100402.72
2023-01-19T14:15:34.704Z,100407.31
2023-01-19T14:18:19.229Z,100406.63
2023-01-19T14:21:15.867Z,100412.16
2023-01-19T14:24:08.074Z,100416.41
2023-01-19T14:26:38.427Z,100421.06
2023-01-19T14:29:29.194Z,100429.13
2023-01-19T14:32:21.227Z,100421.50
2023-01-19T14:35:05.147Z,100434.03
2023-01-19T14:37:37.372Z,100436.59
2023-01-19T14:40:14.918Z,100442.25
2023-01-19T14:42:50.545Z,100444.41
2023-01-19T14:45:21.343Z,100451.66
2023-01-19T14:48:04.008Z,100444.91
2023-01-19T14:50:37.944Z,100452.66
2023-01-19T14:53:08.806Z,100455.06
2023-01-19T14:55:37.863Z,100460.22
2023-01-19T14:58:13.173Z,100455.41
2023-01-19T15:00:41.462Z,100453.31
2023-01-19T15:03:10.041Z,100457.16
2023-01-19T15:05:43.472Z,100462.16
2023-01-19T15:08:17.977Z,100466.16
2023-01-19T15:10:46.280Z,100466.63
2023-01-19T15:13:20.547Z,100466.31
2023-01-19T15:15:48.059Z,100470.31
2023-01-19T15:18:22.347Z,100472.09
2023-01-19T15:20:50.172Z,100478.31
2023-01-19T15:23:17.043Z,100482.19
2023-01-19T15:25:44.165Z,100483.47
2023-01-19T15:28:17.589Z,100489.06
2023-01-19T15:30:44.947Z,100492.28
2023-01-19T15:33:22.596Z,100490.03
2023-01-19T15:35:50.520Z,100486.34
2023-01-19T15:38:17.532Z,100486.69
2023-01-19T15:40:44.921Z,100494.03
2023-01-19T15:43:11.969Z,100486.47
2023-01-19T15:45:43.114Z,100491.91
2023-01-19T15:48:12.319Z,100495.59
2023-01-19T15:50:41.267Z,100490.25
2023-01-19T15:53:13.933Z,100500.66
2023-01-19T15:55:41.147Z,100505.09
2023-01-19T15:58:08.413Z,100503.31
2023-01-19T16:00:35.981Z,100519.78
2023-01-19T16:03:03.533Z,100525.38
2023-01-19T16:05:42.511Z,100521.19
2023-01-19T16:08:11.768Z,100536.53
2023-01-19T16:10:39.885Z,100534.13
2023-01-19T16:13:06.817Z,100530.78
2023-01-19T16:15:37.576Z,100531.88
2023-01-19T16:18:05.918Z,100534.56
2023-01-19T16:20:32.777Z,100534.38
2023-01-19T16:23:13.760Z,100535.00
2023-01-19T16:25:41.772Z,100537.91
2023-01-19T16:28:09.329Z,100548.47
2023-01-19T16:30:36.628Z,100548.97
2023-01-19T16:33:05.317Z,100553.00
2023-01-19T16:35:33.066Z,100549.03
2023-01-19T16:38:00.149Z,100556.22
2023-01-19T16:40:27.152Z,100558.94
2023-01-19T16:42:54.711Z,100557.66
2023-01-19T16:45:21.669Z,100565.63
2023-01-19T16:47:50.739Z,100571.84
2023-01-19T16:50:19.040Z,100571.19
2023-01-19T16:52:46.366Z,100581.25
2023-01-19T16:55:13.298Z,100582.00
2023-01-19T16:57:40.316Z,100579.56
2023-01-19T17:00:09.614Z,100579.75
2023-01-19T17:02:36.787Z,100581.38
2023-01-19T17:05:04.515Z,100598.00
2023-01-19T17:07:31.541Z,100588.06
2023-01-19T17:09:58.550Z,100607.47
2023-01-19T17:12:25.630Z,100607.63
2023-01-19T17:14:52.552Z,100601.31
2023-01-19T17:17:20.051Z,100598.72
2023-01-19T17:19:47.186Z,100600.63
2023-01-19T17:22:15.073Z,100593.69
2023-01-19T17:24:43.421Z,100593.00
2023-01-19T17:27:10.652Z,100596.53
2023-01-19T17:29:37.691Z,100586.75
2023-01-19T17:32:04.862Z,100593.28
2023-01-19T17:34:32.155Z,100587.84
2023-01-19T17:37:03.388Z,100576.91
2023-01-19T17:39:30.629Z,100581.59
2023-01-19T17:41:57.965Z,100580.97
2023-01-19T17:44:25.314Z,100574.88
2023-01-19T17:46:52.195Z,100583.03
2023-01-19T17:49:20.403Z,100595.31
2023-01-19T17:51:52.149Z,100591.72
2023-01-19T17:54:19.972Z,100591.31
2023-01-19T17:56:47.544Z,100589.81
2023-01-19T17:59:14.505Z,100586.19
2023-01-19T18:01:42.869Z,100588.44
2023-01-19T18:04:10.575Z,100592.03
2023-01-19T18:06:38.644Z,100587.53
2023-01-19T18:09:09.255Z,100592.97
2023-01-19T18:11:36.889Z,100593.84
2023-01-19T18:14:05.507Z,100602.41
2023-01-19T18:16:32.776Z,100606.84
2023-01-19T18:19:00.059Z,100615.06
2023-01-19T18:21:28.953Z,100614.97
2023-01-19T18:24:01.328Z,100617.28
2023-01-19T18:26:29.610Z,100613.84
2023-01-19T18:28:57.452Z,100624.91
2023-01-19T18:31:25.836Z,100635.81
2023-01-19T18:33:53.555Z,100638.03
2023-01-19T18:36:20.912Z,100638.94
2023-01-19T18:38:48.518Z,100636.91
2023-01-19T18:41:20.697Z,100638.50
2023-01-19T18:43:49.030Z,100631.66
2023-01-19T18:46:17.128Z,100648.91
2023-01-19T18:48:44.614Z,100641.13
2023-01-19T18:51:13.946Z,100639.81
2023-01-19T18:53:41.158Z,100643.81
2023-01-19T18:56:11.240Z,100639.56
2023-01-19T18:58:39.489Z,100640.16
2023-01-19T19:01:22.316Z,100638.06
2023-01-19T19:03:50.148Z,100650.31
2023-01-19T19:06:20.617Z,100643.00
2023-01-19T19:08:52.279Z,100648.41
2023-01-19T19:11:21.357Z,100649.50
2023-01-19T19:13:57.901Z,100656.53
2023-01-19T19:16:25.235Z,100659.56
2023-01-19T19:18:52.236Z,100667.69
2023-01-19T19:21:21.844Z,100666.34
2023-01-19T19:23:54.502Z,100666.94
2023-01-19T19:26:21.981Z,100665.34
2023-01-19T19:28:49.109Z,100667.31
2023-01-19T19:31:20.683Z,100678.94
2023-01-19T19:33:49.717Z,100677.19
2023-01-19T19:36:17.035Z,100678.22
2023-01-19T19:38:45.055Z,100679.47
2023-01-19T19:41:14.443Z,100677.28
2023-01-19T19:43:41.840Z,100683.19
2023-01-19T19:46:11.789Z,100688.13
2023-01-19T19:48:39.603Z,100692.72
2023-01-19T19:51:17.559Z,100687.81
2023-01-19T19:53:46.362Z,100699.22
2023-01-19T19:56:13.764Z,100686.50
2023-01-19T19:58:42.171Z,100681.88
2023-01-19T20:01:10.409Z,100686.72
2023-01-19T20:03:38.159Z,100690.81
2023-01-19T20:06:10.732Z,100688.13
2023-01-19T20:08:37.935Z,100687.53
2023-01-19T20:11:16.914Z,100681.78
2023-01-19T20:13:45.197Z,100682.91
2023-01-19T20:16:14.846Z,100688.84
2023-01-19T20:18:44.321Z,100692.13
2023-01-19T20:21:16.671Z,100697.06
2023-01-19T20:23:45.503Z,100694.94
2023-01-19T20:26:14.377Z,100696.16
2023-01-19T20:28:41.917Z,100699.25
2023-01-19T20:31:22.454Z,100702.81
2023-01-19T20:33:51.253Z,100707.41
2023-01-19T20:36:20.012Z,100712.25
2023-01-19T20:38:47.215Z,100706.59
2023-01-19T20:41:15.267Z,100713.72
2023-01-19T20:43:42.250Z,100720.16
2023-01-19T20:46:09.544Z,100728.00
2023-01-19T20:48:36.746Z,100733.41
2023-01-19T20:51:06.995Z,100732.53
2023-01-19T20:53:34.808Z,100739.28
2023-01-19T20:56:11.610Z,100731.94
2023-01-19T20:58:38.926Z,100736.50
2023-01-19T21:01:18.966Z,100744.28
2023-01-19T21:03:46.699Z,100757.25
2023-01-19T21:06:14.791Z,100758.84
2023-01-19T21:08:42.028Z,100757.19
2023-01-19T21:11:09.834Z,100746.56
2023-01-19T21:13:37.243Z,100756.59
2023-01-19T21:16:05.116Z,100751.69
2023-01-19T21:18:32.043Z,100757.63
2023-01-19T21:20:59.120Z,100759.00
2023-01-19T21:23:27.524Z,100763.63
2023-01-19T21:25:57.425Z,100766.94
2023-01-19T21:28:24.953Z,100773.44
2023-01-19T21:30:53.429Z,100773.94
2023-01-19T21:33:21.844Z,100784.19
2023-01-19T21:35:54.638Z,100779.59
2023-01-19T21:38:22.768Z,100777.47
2023-01-19T21:40:50.433Z,100784.50
2023-01-19T21:43:20.691Z,100778.56
2023-01-19T21:45:48.900Z,100785.66
2023-01-19T21:48:16.997Z,100796.22
2023-01-19T21:50:44.355Z,100790.28
2023-01-19T21:53:11.973Z,100796.78
2023-01-19T21:55:44.601Z,100803.25
2023-01-19T21:58:11.535Z,100801.34
2023-01-19T22:00:38.574Z,100800.22
2023-01-19T22:03:05.715Z,100804.88
2023-01-19T22:05:37.139Z,100804.34
2023-01-19T22:08:06.374Z,100812.78
2023-01-19T22:10:37.266Z,100813.03
2023-01-19T22:13:06.660Z,100813.34
2023-01-19T22:15:33.816Z,100822.34
2023-01-19T22:18:01.009Z,100822.91
2023-01-19T22:20:28.228Z,100819.41
2023-01-19T22:22:56.413Z,100824.03
2023-01-19T22:25:27.704Z,100832.44
2023-01-19T22:27:55.745Z,100843.00
2023-01-19T22:30:22.713Z,100843.16
2023-01-19T22:32:50.821Z,100843.09
2023-01-19T22:35:17.795Z,100848.50
2023-01-19T22:37:44.687Z,100847.19
2023-01-19T22:40:12.258Z,100848.28
2023-01-19T22:42:39.259Z,100848.81
2023-01-19T22:45:07.033Z,100854.50
2023-01-19T22:47:34.082Z,100859.66
2023-01-19T22:50:00.997Z,100864.78
2023-01-19T22:52:27.939Z,100863.97
2023-01-19T22:54:56.800Z,100856.97
2023-01-19T22:57:24.228Z,100861.09
2023-01-19T22:59:51.061Z,100873.06
2023-01-19T23:02:20.575Z,100874.44
2023-01-19T23:04:47.768Z,100872.25
2023-01-19T23:07:14.833Z,100876.41
2023-01-19T23:09:41.848Z,100885.38
2023-01-19T23:12:08.800Z,100889.63
2023-01-19T23:14:36.452Z,100884.03
2023-01-19T23:17:03.602Z,100885.59
2023-01-19T23:19:30.764Z,100894.19
2023-01-19T23:21:57.703Z,100895.22
2023-01-19T23:24:24.873Z,100885.63
2023-01-19T23:26:51.936Z,100886.91
2023-01-19T23:29:20.425Z,100879.34
2023-01-19T23:31:50.160Z,100881.03
2023-01-19T23:34:17.126Z,100884.38
2023-01-19T23:36:44.373Z,100885.78
2023-01-19T23:39:22.261Z,100876.81
2023-01-19T23:41:50.567Z,100876.81
2023-01-19T23:44:18.100Z,100877.34
2023-01-19T23:46:46.214Z,100885.19
2023-01-19T23:49:13.690Z,100877.88
2023-01-19T23:51:41.529Z,100883.16
2023-01-19T23:54:08.799Z,100879.59
2023-01-19T23:56:37.278Z,100884.19
2023-01-19T23:59:07.100Z,100884.28
